Timeline UpdatesTrip UpdatesNews PostsPvt PostsTravel TipsAdmin PostsConv PostsFollowed PostsChat RequestsBlog PostsPNR Posts

Disclaimer
Search
 
 
Sun Apr 20, 2014 13:47:36 ISTHomeTrainsΣChainsAtlasPNRForumGalleryNewsFAQTripsMembersLoginFeedback
No Recent News for this Train
Other Trains in the News **new
Latest...
.
Mon Feb 03, 2014 (01:57PM)
⇐ Return Journey: Train# 11272

11271/Vindhyachal Express

Oct 02 2013 (5:42PM)
Change Departure Station:
Change Arrival Station:
Post a Train Travel TipPost a Train Travel Tip **new
Post a Comment/Question/Picture/VideoPost a Comment/Question/Picture/Video
Pantry/Catering
✕ NO Pantry Car
✕ NO Catering
Loco/Rake Reversals
KTE/Katni Junction (6);
RSA - Rake Sharing
No Rake Sharing.
Rake/Coach Composition
Loco-SLR-G1-G2-G3-G4-G5-G6-S1-G7-G8-SLR; Entry-801454
Loco
ET-KTE: KTE WDM-3A KTE-BPL: ET WAM-4 / WAP-4
News    PNR    Forum    Time-Table    Availability    Fare Chart    Map    Arr/Dep History    Trips    Gallery    ΣChains    X/O    Timeline    
Travel Time: 14h 21m    31 halts    Distance: 576 km    Avg Speed: 40 km/hr
Type: Mail/Express
Zone: WCR/West Central
Departs @ 19:04 (Avg 37m late)
Platform# 1
SMTWTFS
Narsinghpur/NU 
Arrives @ 09:25 +1 night (Avg 3m late)
Platform# 5
SMTWTFS
Bhopal Junction/BPL 

31 halts. 73 intermediate Stations between Narsinghpur and Bhopal Junction

Hide intermediate Stations  Show Old Time-Table

#CodeStation NameX/OArrivesAvgDepartsAvgHaltPFDay#KmSpeedElevZoneAddress
1ETItarsi Junction (7)  -16:20+0--1-160.970329mWCRItarsi 461111, Madhya Pradesh
2GROGurra (2)  16:29+1616:31+162m--1-150.460327mWCRItarsi, Madhya Pradesh
3SQLSontalai (2)X  16:40+1616:42+172m--1-141.452329mWCRItarsi, Madhya Pradesh
4BGTABagra Tawa (2)X  16:50+1916:52+192m--1-134.571338mWCRBagra Tawa, Madhya Pradesh
5GMDGuramkhedi (2)X  17:03+2017:05+202m--1-121.560337mWCRSohagpur, Madhya Pradesh
6SGPSohagpur (2)  17:15+2017:17+212m--1-111.488340mWCRSohagpur, Madhya Pradesh
6.1SXFSobhapur (2)  17:23-17:23-  1-102.4 88338mWCRState Highway 22, Madhya Pradesh
7PPIPipariya (3)X  17:29+2317:31+272m--1-93.771338mWCRPiparia, Madhya Pradesh
8BKHBankhedi (2)  17:47+2717:49+272m--1-74.871351mWCRBankheri, Madhya Pradesh
8.1JHTJunehta (2)  17:54-17:54-  1-68.4 71353mWCRState Highway 22, Madhya Pradesh
9SCKRSalichauka Road (2)X  18:03+2818:05+282m--1-58.370355mWCRGadarwara, Madhya Pradesh
10GARGadarwara (2)X  18:17+2918:19+322m11-44.365352mWCRNarsinghpur, Madhya Pradesh
11BNEBohani (2)X  18:31+3418:33+362m21-31.469361mWCRNarsinghpur, Madhya Pradesh
11.1KFYKarapgaon (2)  18:39-18:39-  1-24.7 69364mWCRNational Highway 26, Madhya Pradesh
12KYKareli (2)X  18:46+3918:48+392m11-16.470361mWCRKareli, Madhya Pradesh
13NU»Narsinghpur (2)»X  19:02+3719:04+372m110.059365mWCRNarsimhapur, Madhya Pradesh
13.1GPCGhatpindrai (2)  19:10-19:10-  15.8 59366mWCRGhatpindra, Madhya Pradesh
13.2BELDBelkhera (2)  19:16-19:16-  111.3 59367mWCRState Highway 22, Madhya Pradesh
14KKBKarak Bel (2)X  19:20+4419:22+482m1115.771375mWCRKarak Bel, Madhya Pradesh
15SRIDShridham (3)X  19:35+4419:37+462m2131.071373mWCRShridham, Madhya Pradesh
16BMRBikrampur (2)X  19:47+5119:49+532m--142.969353mWCRBikrampur Dist Narsingpur., Madhya Pradesh
17BHTNBhitoni (2)X  19:59+5320:01+532m--154.579377mWCRJabalpur, Madhya Pradesh
18BRGTBheraghat (2)  20:11+5320:13+552m--167.679389mWCRBheraghat, Madhya Pradesh
18.1KEQKachhpura (2)  20:22-20:22-  179.0 79392mWCRJabalpur, Madhya Pradesh
19MMLMadan Mahal (3)  20:23+5420:25+572m3180.77428mWCRJabalpur, Madhya Pradesh
19.1HBGHowbagh Jabalpur (2)O  20:35-20:35-  181.9 7405mSECRJabalpur, Madhya Pradesh
20JBPJabalpur Junction (7)X  20:55+3821:05+4910m3184.284416mWCRJabalpur, Madhya Pradesh
20.1ADTLAdhartal (2)  21:11-21:11-  192.2 84393mWCRJabalpur, Madhya Pradesh
21DOEDeori (2)  21:17+1:0121:19+1:042m--1101.070392mWCRJabalpur, Madhya Pradesh
22GSPRGosalpur (2)  21:28+1:0421:30+1:112m--1111.561396mWCRJabalpur, Madhya Pradesh
23SHRSihora Road (2)X  21:41+1:1121:43+1:112m--1122.629388mWCRJabalpur, Madhya Pradesh
23.1DDCEDundi (2)XO  22:14-22:14-  1137.5 29415mWCRDundi, Madhya Pradesh
23.2SBDSleemanabad Road (2)  22:33-22:33-  1147.1 29434mWCRSleemanabad, Madhya Pradesh
23.3SNRRSansarpur (2)XO  22:47-22:47-  1153.9 29436mWCRNational Highway 7, Madhya Pradesh
23.4NWRNiwar (2)  23:03-23:03-  1161.7 29412mWCRPipraundh, Madhya Pradesh
23.5MDRRMadhavnagar Road (2)X  23:19-23:19-  1169.8 29398mWCRMadhavnagar, Madhya Pradesh
23.6KTESKatni South  23:28-23:28-  1173.8 29386mWCRKatni, Madhya Pradesh
24KTEKatni Junction (6)↵¶23:30+2423:50+2820m--1174.968387mWCRKatni, Madhya Pradesh
24.1KMZKatni Murwara  23:51-23:51-  1176.6 68385mWCRMP 483504 ?, Madhya Pradesh
24.2MJGPMajhagawan Phatak  23:58-23:58-  1183.4 68395mWCRKatni, Madhya Pradesh
24.3HDUHardua  00:05-00:05-  2191.9 68394mWCRKatni, Madhya Pradesh
24.4PTHDPatohan  00:13-00:13-  2200.6 68409mWCRKachhar Kheda, Madhya Pradesh
25REIRithi  00:18+4100:20+412m--2206.662427mWCRKatni, Madhya Pradesh
25.1BQQBakhleta  00:28-00:28-  2215.0 62429mWCRKatni, Madhya Pradesh
26SYASalaia  00:38+3900:40+402m--2225.477438mWCRGhatera, Madhya Pradesh
26.1RTGNRatangaonX  00:45-00:45-  2232.4 77449mWCRDohli, Madhya Pradesh
26.2SAOSagoniX  00:54-00:54-  2243.5 77358mWCRGhatera, Madhya Pradesh
26.3GTYGola Pati  01:00-01:00-  2251.0 77356mWCRKumhari, Madhya Pradesh
26.4GEAGhatera  01:07-01:07-  2259.7 77332mWCRBandakpur Rd, Madhya Pradesh
27BNUBandakpur  01:15+4501:17+462m--2270.340352mWCRBandakpur Rd, Madhya Pradesh
27.1KYXKarhiya BhadeliX  01:28-01:28-  2277.6 40365mWCRGhatera, Madhya Pradesh
28DMODamoh (2)  01:40+4101:45+405m--2285.778365mWCRDamoh, Madhya Pradesh
28.1ANAAslana  01:54-01:54-  2298.0 78367mWCRDamoh, Madhya Pradesh
29PHAPathariaX  02:05+4402:07+452m--2311.886382mWCRState Highway 14, Madhya Pradesh
30GAJGaneshGanj  02:16+5002:18+502m--2324.753419mWCRPatharia, Madhya Pradesh
30.1DGDDangidhar (2)  02:26-02:26-  2331.5 53434mWCRState Highway 14, Madhya Pradesh
30.2GWGirwarX  02:34-02:34-  2338.5 53472mWCRSagar, Madhya Pradesh
30.3LDALidhora KhurdX  02:45-02:45-  2348.5 53496mWCRSagar, Madhya Pradesh
31MKRNMakronia  02:53+4502:55+492m--2355.717527mWCRRajakhedi, Madhya Pradesh
32SGOSaugor (2)X  03:20+3303:30+3010m--2362.885519mWCRMP 470001Madhya pradesh, Madhya Pradesh
32.1RTZRatona  03:35-03:35-  2370.0 85507mWCRNational Highway 86, Madhya Pradesh
33NOINariaoli  03:43+3703:45+382m--2381.1124485mWCRSagar, Madhya Pradesh
33.1ISHIsarwara  03:49-03:49-  2388.6 124487mWCRSagar, Madhya Pradesh
34JRKJeruwa Khera  03:53+4503:55+472m--2397.7-498mWCRJeruwakhera, Madhya Pradesh
34.1SMRRSumreriX  03:58-03:58-  2406.8 -443mWCRKhurai, Madhya Pradesh
35KYEKhurai (5)X  04:00+5804:02+592m--2415.613439mWCRKhurai, Madhya Pradesh
35.1BJQBaghora (2)O  04:55-04:55-  2427.4 13420mWCRSagar, Madhya Pradesh
35.2MAKRMalkheri Junction (2)X  05:19-05:19-  2432.8 13421mWCRGuna, Madhya Pradesh
36BINABina Junction (5)  05:40+1705:45+255m22437.569414mWCRJn Pt - KATNI/GUNA/ BPL/JHS, Madhya Pradesh
36.1KIKAKurwai Kethora (2)X  05:53-05:53-  2446.8 69407mWCRBina, Madhya Pradesh
37MABAMandi Bamora (3)  06:00+3206:02+342m22454.748413mWCRState Highway 14, Madhya Pradesh
38KAHKalhar (3)XO  06:13+3206:15+362m--2463.516409mWCRSagar, Madhya Pradesh
38.1CLHTChulhetaXO  06:36-06:36-  2469.0 16401mWCRBareth, Madhya Pradesh
39BETBareth (4)X  06:53+1506:55+162m--2473.459418mWCRState Highway 19, Madhya Pradesh
39.1RKDIRaukheri  07:02-07:02-  2480.1 59417mWCRParsora Basoda, Madhya Pradesh
39.2RKRIRao Khedi  07:02-07:02-  2480.1 59417mWCRGanj Basoda, Madhya Pradesh
40BAQGanj Basoda (4)XO  07:05+2107:07+212m22483.252416mWCRVidisha, Madhya Pradesh
40.1PAIPabai (3)  07:17-07:17-  2492.0 52425mWCRVidisha, Madhya Pradesh
41GLGGulabhGanj (3)X  07:28+1707:30+182m22501.570432mWCRVidisha, Madhya Pradesh
41.1SUMRSumer (3)X  07:36-07:36-  2509.0 70417mWCRVidisha, Madhya Pradesh
41.2SORISorai (3)X  07:43-07:43-  2517.2 70428mWCRVidisha, Madhya Pradesh
42BHSVidisha (3)  07:48+2007:50+202m22522.570432mWCRVidisha, Madhya Pradesh
42.1BTWNBetwa Cabin  07:53-07:53-  2526.1 70422mWCRVidisha, Madhya Pradesh
43SCISanchi (2)X  07:58+1908:00+192m12531.955428mWCRRaisen, Madhya Pradesh
44SMTSalamatpur (3)XO  08:08+908:10+92m12539.229437mWCRRaisen, Madhya Pradesh
44.1DWGDewanGanj (3)X  08:29-08:29-  2548.5 29444mWCRRaisen, Madhya Pradesh
44.2BVBBhadbhadaghat (1)X  08:47-08:47-  2557.3 29474mWCRBhopal, Madhya Pradesh
44.3SUWSukhisewaniyan (3)X  09:02-09:02-  2564.8 29508mWCRBhopal, Madhya Pradesh
44.4NSZNishatpura  09:23-09:23-  2575.1 29492mWCRBhopal, Madhya Pradesh
45BPL•Bhopal Junction (6)•  09:25+3-52576.0-497mWCRBhopal, Madhya Pradesh
Scroll to Top
Scroll to Bottom